createdAt,value
2019-05-21T00:00:26.589Z,99782.37
2019-05-21T00:02:58.373Z,99789.04
2019-05-21T00:05:30.024Z,99786.02
2019-05-21T00:08:01.834Z,99784.33
2019-05-21T00:10:33.561Z,99778.25
2019-05-21T00:13:05.650Z,99776.47
2019-05-21T00:15:38.886Z,99780.13
2019-05-21T00:18:10.776Z,99773.11
2019-05-21T00:20:42.437Z,99781.47
2019-05-21T00:23:14.266Z,99777.96
2019-05-21T00:25:46.274Z,99775.91
2019-05-21T00:28:34.610Z,99774.77
2019-05-21T00:32:00.531Z,99777.94
2019-05-21T00:35:28.698Z,99769.97
2019-05-21T00:38:55.051Z,99772.30
2019-05-21T00:42:04.429Z,99780.03
2019-05-21T00:44:41.285Z,99780.56
2019-05-21T00:47:14.068Z,99785.67
2019-05-21T00:49:45.890Z,99788.37
2019-05-21T00:52:17.527Z,99791.77
2019-05-21T00:54:49.446Z,99791.89
2019-05-21T00:57:21.064Z,99786.69
2019-05-21T00:59:52.872Z,99781.45
2019-05-21T01:02:24.593Z,99778.66
2019-05-21T01:05:00.682Z,99767.23
2019-05-21T01:07:30.107Z,99778.75
2019-05-21T01:10:01.770Z,99787.10
2019-05-21T01:12:33.736Z,99788.92
2019-05-21T01:15:08.313Z,99789.45
2019-05-21T01:17:40.046Z,99791.89
2019-05-21T01:20:12.542Z,99785.94
2019-05-21T01:22:44.773Z,99781.00
2019-05-21T01:25:17.499Z,99784.64
2019-05-21T01:27:49.234Z,99793.62
2019-05-21T01:30:20.971Z,99785.84
2019-05-21T01:32:52.806Z,99790.59
2019-05-21T01:35:24.529Z,99791.80
2019-05-21T01:37:56.267Z,99789.78
2019-05-21T01:40:27.998Z,99786.30
2019-05-21T01:43:03.203Z,99788.13
2019-05-21T01:45:33.052Z,99796.24
2019-05-21T01:48:04.887Z,99790.42
2019-05-21T01:50:36.640Z,99795.98
2019-05-21T01:53:08.376Z,99791.25
2019-05-21T01:55:40.130Z,99788.45
2019-05-21T01:58:11.849Z,99786.14
2019-05-21T02:00:43.707Z,99790.40
2019-05-21T02:03:15.399Z,99789.69
2019-05-21T02:05:47.138Z,99782.79
2019-05-21T02:08:19.024Z,99787.14
2019-05-21T02:10:50.679Z,99788.25
2019-05-21T02:13:22.679Z,99784.15
2019-05-21T02:15:54.516Z,99782.93
2019-05-21T02:18:26.242Z,99791.28
2019-05-21T02:20:58.941Z,99793.24
2019-05-21T02:23:30.667Z,99789.72
2019-05-21T02:26:02.495Z,99789.48
2019-05-21T02:28:34.234Z,99795.30
2019-05-21T02:31:06.143Z,99796.16
2019-05-21T02:33:37.780Z,99795.66
2019-05-21T02:36:09.502Z,99793.72
2019-05-21T02:38:41.242Z,99797.34
2019-05-21T02:41:12.966Z,99793.95
2019-05-21T02:43:44.854Z,99789.46
2019-05-21T02:46:16.505Z,99795.18
2019-05-21T02:48:48.342Z,99791.91
2019-05-21T02:51:20.072Z,99792.50
2019-05-21T02:53:51.804Z,99800.95
2019-05-21T02:56:23.533Z,99803.52
2019-05-21T02:58:55.363Z,99804.37
2019-05-21T03:01:28.742Z,99806.91
2019-05-21T03:04:00.370Z,99819.14
2019-05-21T03:06:32.102Z,99812.47
2019-05-21T03:09:05.549Z,99809.06
2019-05-21T03:11:37.649Z,99814.17
2019-05-21T03:14:09.277Z,99812.45
2019-05-21T03:16:41.001Z,99820.44
2019-05-21T03:19:16.659Z,99824.61
2019-05-21T03:21:47.682Z,99819.98
2019-05-21T03:24:19.341Z,99820.23
2019-05-21T03:26:51.070Z,99817.19
2019-05-21T03:29:22.908Z,99812.59
2019-05-21T03:31:54.680Z,99818.37
2019-05-21T03:34:26.355Z,99819.95
2019-05-21T03:36:58.182Z,99823.91
2019-05-21T03:39:29.916Z,99828.28
2019-05-21T03:42:02.019Z,99827.20
2019-05-21T03:44:33.896Z,99832.98
2019-05-21T03:47:05.520Z,99830.36
2019-05-21T03:49:37.258Z,99832.96
2019-05-21T03:52:08.999Z,99836.17
2019-05-21T03:54:40.919Z,99838.28
2019-05-21T03:57:13.721Z,99827.89
2019-05-21T03:59:45.573Z,99837.95
2019-05-21T04:02:17.299Z,99838.39
2019-05-21T04:04:49.034Z,99838.36
2019-05-21T04:07:20.783Z,99842.97
2019-05-21T04:09:52.528Z,99837.08
2019-05-21T04:12:24.260Z,99836.88
2019-05-21T04:15:06.697Z,99833.92
2019-05-21T04:17:38.390Z,99832.38
2019-05-21T04:20:11.766Z,99841.50
2019-05-21T04:22:53.037Z,99842.19
2019-05-21T04:25:25.603Z,99841.59
2019-05-21T04:27:57.341Z,99838.33
2019-05-21T04:30:29.241Z,99836.47
2019-05-21T04:33:01.072Z,99835.18
2019-05-21T04:35:32.927Z,99826.47
2019-05-21T04:38:04.668Z,99829.80
2019-05-21T04:40:36.399Z,99821.59
2019-05-21T04:43:08.749Z,99822.91
2019-05-21T04:45:40.488Z,99822.00
2019-05-21T04:48:12.324Z,99823.20
2019-05-21T04:50:44.065Z,99822.30
2019-05-21T04:53:15.797Z,99816.41
2019-05-21T04:55:49.083Z,99820.81
2019-05-21T04:58:20.979Z,99820.64
2019-05-21T05:00:52.633Z,99821.23
2019-05-21T05:03:24.360Z,99823.72
2019-05-21T05:06:11.885Z,99823.74
2019-05-21T05:08:44.952Z,99824.84
2019-05-21T05:11:16.484Z,99824.84
2019-05-21T05:13:48.321Z,99828.16
2019-05-21T05:16:20.069Z,99826.67
2019-05-21T05:18:51.823Z,99824.27
2019-05-21T05:21:23.553Z,99833.94
2019-05-21T05:23:58.100Z,99827.53
2019-05-21T05:26:31.485Z,99828.08
2019-05-21T05:29:03.213Z,99831.75
2019-05-21T05:31:34.943Z,99837.25
2019-05-21T05:34:06.694Z,99834.73
2019-05-21T05:36:38.500Z,99839.16
2019-05-21T08:41:52.383Z,99811.64
2019-05-21T08:44:24.008Z,99811.98
2019-05-21T08:46:58.412Z,99811.23
2019-05-21T08:49:30.476Z,99804.31
2019-05-21T08:52:02.178Z,99811.11
2019-05-21T08:54:56.242Z,99813.55
2019-05-21T08:57:32.841Z,99818.81
2019-05-21T09:00:13.935Z,99819.19
2019-05-21T09:02:45.771Z,99818.35
2019-05-21T09:05:17.856Z,99817.16
2019-05-21T09:07:53.445Z,99818.26
2019-05-21T09:10:22.813Z,99816.98
2019-05-21T09:12:59.050Z,99825.55
2019-05-21T09:15:30.884Z,99825.63
2019-05-21T09:18:02.504Z,99825.48
2019-05-21T09:20:36.185Z,99830.48
2019-05-21T09:23:07.850Z,99829.70
2019-05-21T09:25:40.884Z,99828.41
2019-05-21T09:28:12.624Z,99834.47
2019-05-21T09:30:45.467Z,99825.36
2019-05-21T09:33:17.297Z,99818.13
2019-05-21T09:35:49.162Z,99819.88
2019-05-21T09:38:20.804Z,99823.06
2019-05-21T09:40:52.914Z,99818.34
2019-05-21T09:43:24.627Z,99823.13
2019-05-21T09:45:56.484Z,99817.81
2019-05-21T09:48:30.923Z,99820.86
2019-05-21T09:51:04.534Z,99817.09
2019-05-21T09:53:36.296Z,99821.54
2019-05-21T09:56:26.365Z,99814.25
2019-05-21T09:59:09.225Z,99811.03
2019-05-21T10:01:48.289Z,99804.64
2019-05-21T10:04:20.498Z,99808.43
2019-05-21T10:06:54.021Z,99811.99
2019-05-21T10:09:25.847Z,99808.18
2019-05-21T10:11:59.230Z,99806.05
2019-05-21T10:14:34.240Z,99806.88
2019-05-21T10:17:06.184Z,99805.21
2019-05-21T10:19:37.772Z,99802.16
2019-05-21T10:22:10.265Z,99805.03
2019-05-21T10:24:42.716Z,99801.86
2019-05-21T10:27:15.555Z,99805.05
2019-05-21T10:29:47.296Z,99805.19
2019-05-21T10:32:20.192Z,99800.45
2019-05-21T10:34:52.024Z,99796.76
2019-05-21T10:37:24.723Z,99804.31
2019-05-21T10:39:57.453Z,99804.68
2019-05-21T10:42:34.359Z,99805.71
2019-05-21T10:45:08.159Z,99804.44
2019-05-21T10:47:43.267Z,99806.27
2019-05-21T10:50:15.225Z,99804.27
2019-05-21T10:52:46.859Z,99806.41
2019-05-21T10:55:21.812Z,99799.00
2019-05-21T10:57:53.971Z,99812.34
2019-05-21T11:00:27.357Z,99799.31
2019-05-21T11:03:03.831Z,99805.46
2019-05-21T11:05:39.042Z,99804.31
2019-05-21T11:08:23.354Z,99808.37
2019-05-21T11:10:46.153Z,99806.27
2019-05-21T11:13:17.880Z,99806.71
2019-05-21T11:15:49.710Z,99809.44
2019-05-21T11:18:21.425Z,99807.93
2019-05-21T11:20:53.151Z,99808.73
2019-05-21T11:23:25.063Z,99808.59
2019-05-21T11:25:56.687Z,99801.81
2019-05-21T11:28:29.433Z,99802.64
2019-05-21T11:31:01.150Z,99791.94
2019-05-21T11:33:33.050Z,99796.34
2019-05-21T11:36:06.234Z,99796.41
2019-05-21T11:38:40.272Z,99799.11
2019-05-21T11:41:11.499Z,99797.41
2019-05-21T11:43:43.296Z,99797.84
2019-05-21T11:46:15.375Z,99800.46
2019-05-21T11:48:47.379Z,99797.98
2019-05-21T11:51:18.895Z,99787.98
2019-05-21T11:53:50.972Z,99785.88
2019-05-21T11:56:24.125Z,99790.78
2019-05-21T11:58:55.764Z,99795.56
2019-05-21T12:01:27.493Z,99790.17
2019-05-21T12:03:59.226Z,99791.59
2019-05-21T12:06:31.059Z,99795.47
2019-05-21T12:09:03.471Z,99791.81
2019-05-21T12:11:35.107Z,99785.84
2019-05-21T12:14:07.018Z,99786.66
2019-05-21T12:16:38.663Z,99790.25
2019-05-21T12:19:10.396Z,99788.77
2019-05-21T12:21:43.450Z,99796.70
2019-05-21T12:24:16.061Z,99797.91
2019-05-21T12:26:47.874Z,99793.09
2019-05-21T12:29:19.839Z,99788.97
2019-05-21T12:31:59.536Z,99793.63
2019-05-21T12:34:33.757Z,99810.84
2019-05-21T12:37:05.973Z,99808.28
2019-05-21T12:39:39.084Z,99822.38
2019-05-21T12:42:13.165Z,99822.64
2019-05-21T12:44:44.987Z,99833.06
2019-05-21T12:47:21.081Z,99835.78
2019-05-21T12:49:52.632Z,99827.76
2019-05-21T12:52:24.733Z,99818.86
2019-05-21T12:54:56.357Z,99800.66
2019-05-21T12:57:28.036Z,99805.37
2019-05-21T12:59:59.980Z,99808.44
2019-05-21T13:02:36.403Z,99802.92
2019-05-21T13:05:11.572Z,99799.72
2019-05-21T13:07:42.830Z,99788.86
2019-05-21T13:10:16.272Z,99783.23
2019-05-21T13:12:50.734Z,99789.27
2019-05-21T13:15:27.662Z,99788.32
2019-05-21T13:18:00.710Z,99788.32
2019-05-21T13:20:34.388Z,99794.45
2019-05-21T13:23:07.826Z,99792.10
2019-05-21T13:25:39.469Z,99792.23
2019-05-21T13:28:14.419Z,99789.53
2019-05-21T13:30:51.936Z,99786.64
2019-05-21T13:33:25.370Z,99784.13
2019-05-21T13:35:57.285Z,99779.23
2019-05-21T13:38:29.240Z,99783.75
2019-05-21T13:41:02.137Z,99789.69
2019-05-21T13:43:34.234Z,99787.53
2019-05-21T13:46:10.107Z,99783.09
2019-05-21T13:48:42.463Z,99782.06
2019-05-21T13:51:15.059Z,99787.86
2019-05-21T13:53:48.852Z,99781.95
2019-05-21T13:56:22.405Z,99769.81
2019-05-21T13:58:54.395Z,99766.64
2019-05-21T14:01:40.238Z,99775.78
2019-05-21T14:04:11.579Z,99785.17
2019-05-21T14:06:45.359Z,99788.02
2019-05-21T14:09:19.509Z,99785.89
2019-05-21T14:11:53.079Z,99784.47
2019-05-21T14:14:25.006Z,99782.45
2019-05-21T14:16:58.867Z,99780.48
2019-05-21T14:19:31.083Z,99783.08
2019-05-21T14:22:03.567Z,99786.23
2019-05-21T14:24:35.220Z,99787.78
2019-05-21T14:27:07.625Z,99784.86
2019-05-21T14:29:39.468Z,99782.34
2019-05-21T14:32:11.300Z,99776.59
2019-05-21T14:34:59.935Z,99777.75
2019-05-21T14:37:18.531Z,99770.64
2019-05-21T14:39:51.579Z,99775.84
2019-05-21T14:42:26.405Z,99772.16
2019-05-21T14:45:01.208Z,99773.52
2019-05-21T14:47:34.325Z,99775.02
2019-05-21T14:50:10.668Z,99778.22
2019-05-21T14:52:42.279Z,99774.80
2019-05-21T14:55:19.885Z,99769.78
2019-05-21T14:57:52.867Z,99770.22
2019-05-21T15:00:33.922Z,99775.19
2019-05-21T15:03:23.847Z,99782.83
2019-05-21T15:05:44.552Z,99781.78
2019-05-21T15:08:16.418Z,99771.86
2019-05-21T15:10:49.535Z,99779.31
2019-05-21T15:13:21.806Z,99781.70
2019-05-21T15:15:53.539Z,99779.73
2019-05-21T15:18:25.294Z,99779.00
2019-05-21T15:21:05.070Z,99780.50
2019-05-21T15:23:37.616Z,99778.09
2019-05-21T15:26:14.082Z,99777.06
2019-05-21T15:28:45.872Z,99782.16
2019-05-21T15:31:17.631Z,99781.84
2019-05-21T15:33:50.906Z,99775.36
2019-05-21T15:36:27.161Z,99769.83
2019-05-21T15:38:58.853Z,99764.34
2019-05-21T15:41:30.895Z,99770.77
2019-05-21T15:44:03.008Z,99772.23
2019-05-21T15:46:48.582Z,99780.07
2019-05-21T15:49:35.191Z,99773.05
2019-05-21T15:51:53.220Z,99775.25
2019-05-21T15:54:24.989Z,99772.83
2019-05-21T15:57:02.760Z,99772.39
2019-05-21T15:59:37.271Z,99765.89
2019-05-21T16:02:08.930Z,99764.73
2019-05-21T16:04:40.582Z,99762.97
2019-05-21T16:07:13.565Z,99767.03
2019-05-21T16:09:46.262Z,99771.43
2019-05-21T16:12:18.055Z,99774.30
2019-05-21T16:14:49.797Z,99769.05
2019-05-21T16:17:21.813Z,99763.61
2019-05-21T16:19:53.549Z,99769.77
2019-05-21T16:22:25.384Z,99761.59
2019-05-21T16:24:57.123Z,99767.53
2019-05-21T16:27:28.884Z,99762.27
2019-05-21T16:30:01.902Z,99773.86
2019-05-21T16:32:33.646Z,99778.52
2019-05-21T16:35:09.701Z,99782.59
2019-05-21T16:37:41.236Z,99773.08
2019-05-21T16:40:13.992Z,99771.94
2019-05-21T16:42:46.225Z,99768.48
2019-05-21T16:45:18.380Z,99765.45
2019-05-21T16:47:50.029Z,99769.55
2019-05-21T16:50:23.416Z,99765.97
2019-05-21T16:52:55.088Z,99758.56
2019-05-21T16:55:26.819Z,99765.66
2019-05-21T16:57:58.567Z,99766.45
2019-05-21T17:00:30.818Z,99760.34
2019-05-21T17:03:03.908Z,99763.89
2019-05-21T17:05:35.660Z,99759.97
2019-05-21T17:08:07.484Z,99761.53
2019-05-21T17:10:39.296Z,99759.48
2019-05-21T17:13:10.999Z,99762.80
2019-05-21T17:15:44.071Z,99757.20
2019-05-21T17:18:15.753Z,99756.38
2019-05-21T17:20:49.593Z,99755.22
2019-05-21T17:23:22.875Z,99752.30
2019-05-21T17:25:56.397Z,99748.67
2019-05-21T17:28:30.333Z,99741.66
2019-05-21T17:31:03.006Z,99740.38
2019-05-21T17:33:37.652Z,99740.95
2019-05-21T17:36:12.058Z,99738.62
2019-05-21T17:38:47.196Z,99741.86
2019-05-21T17:41:22.622Z,99738.90
2019-05-21T17:44:00.009Z,99742.13
2019-05-21T17:46:32.354Z,99736.11
2019-05-21T17:49:07.350Z,99730.80
2019-05-21T17:51:41.988Z,99716.42
2019-05-21T17:54:16.208Z,99720.36
2019-05-21T17:56:51.357Z,99721.66
2019-05-21T17:59:24.510Z,99719.63
2019-05-21T18:01:58.140Z,99715.64
2019-05-21T18:04:31.833Z,99708.62
2019-05-21T18:07:06.934Z,99717.65
2019-05-21T18:09:40.791Z,99716.88
2019-05-21T18:12:13.971Z,99722.65
2019-05-21T18:14:46.171Z,99724.78
2019-05-21T18:17:22.302Z,99719.08
2019-05-21T18:19:57.822Z,99729.58
2019-05-21T18:22:35.253Z,99740.78
2019-05-21T18:25:12.966Z,99738.08
2019-05-21T18:27:44.936Z,99724.64
2019-05-21T18:30:17.431Z,99735.58
2019-05-21T18:32:49.656Z,99735.73
2019-05-21T18:35:21.309Z,99740.70
2019-05-21T18:37:56.019Z,99749.27
2019-05-21T18:40:27.893Z,99763.45
2019-05-21T18:42:59.761Z,99820.08
2019-05-21T18:45:31.785Z,99845.64
2019-05-21T18:48:03.759Z,99839.19
2019-05-21T18:50:37.108Z,99830.29
2019-05-21T18:53:10.135Z,99837.68
2019-05-21T18:55:44.722Z,99829.23
2019-05-21T18:58:17.611Z,99822.81
2019-05-21T19:00:50.033Z,99830.31
2019-05-21T19:03:25.623Z,99829.47
2019-05-21T19:05:55.846Z,99824.48
2019-05-21T19:08:28.304Z,99824.15
2019-05-21T19:11:00.234Z,99828.86
2019-05-21T19:13:33.472Z,99828.39
2019-05-21T19:16:07.134Z,99830.23
2019-05-21T19:18:38.971Z,99830.38
2019-05-21T19:21:12.067Z,99833.41
2019-05-21T19:23:44.868Z,99834.61
2019-05-21T19:26:16.420Z,99830.58
2019-05-21T19:28:48.409Z,99824.69
2019-05-21T19:31:25.527Z,99827.72
2019-05-21T19:33:59.750Z,99829.56
2019-05-21T19:36:32.102Z,99819.64
2019-05-21T19:39:07.379Z,99829.73
2019-05-21T19:41:39.435Z,99823.34
2019-05-21T19:44:14.806Z,99819.30
2019-05-21T19:46:46.727Z,99827.38
2019-05-21T19:49:19.739Z,99821.31
2019-05-21T19:52:00.340Z,99821.31
2019-05-21T19:54:35.610Z,99817.64
2019-05-21T19:57:08.385Z,99826.87
2019-05-21T19:59:41.288Z,99818.28
2019-05-21T20:02:13.800Z,99826.03
2019-05-21T20:04:46.464Z,99826.20
2019-05-21T20:07:19.436Z,99829.56
2019-05-21T20:09:51.774Z,99834.44
2019-05-21T20:12:24.135Z,99829.76
2019-05-21T20:14:56.211Z,99825.72
2019-05-21T20:17:30.401Z,99824.03
2019-05-21T20:20:02.055Z,99825.37
2019-05-21T20:22:35.167Z,99824.03
2019-05-21T20:25:07.749Z,99824.03
2019-05-21T20:27:39.537Z,99819.47
2019-05-21T20:30:14.329Z,99817.62
2019-05-21T20:32:48.361Z,99819.81
2019-05-21T20:35:23.675Z,99821.97
2019-05-21T20:37:59.843Z,99826.51
2019-05-21T20:40:33.170Z,99820.62
2019-05-21T20:43:10.150Z,99813.52
2019-05-21T20:45:43.891Z,99820.42
2019-05-21T20:48:19.544Z,99814.84
2019-05-21T20:50:51.460Z,99813.48
2019-05-21T20:53:29.782Z,99813.99
2019-05-21T20:56:03.730Z,99816.86
2019-05-21T20:58:40.697Z,99810.13
2019-05-21T21:01:12.538Z,99819.78
2019-05-21T21:03:46.959Z,99816.58
2019-05-21T21:06:34.343Z,99818.09
2019-05-21T21:08:52.485Z,99816.08
2019-05-21T21:11:26.689Z,99816.61
2019-05-21T21:14:17.506Z,99819.97
2019-05-21T21:16:38.963Z,99815.59
2019-05-21T21:19:14.368Z,99811.23
2019-05-21T21:21:49.223Z,99812.88
2019-05-21T21:24:21.255Z,99811.34
2019-05-21T21:26:53.653Z,99809.12
2019-05-21T21:29:25.801Z,99800.67
2019-05-21T21:32:00.940Z,99802.52
2019-05-21T21:34:34.437Z,99795.09
2019-05-21T21:37:09.271Z,99799.96
2019-05-21T21:39:42.963Z,99801.77
2019-05-21T21:42:15.020Z,99806.94
2019-05-21T21:44:47.341Z,99804.57
2019-05-21T21:47:24.869Z,99804.36
2019-05-21T21:49:57.684Z,99798.14
2019-05-21T21:52:30.878Z,99803.68
2019-05-21T21:55:06.202Z,99804.85
2019-05-21T21:57:39.541Z,99807.89
2019-05-21T22:00:43.347Z,99805.87
2019-05-21T22:03:15.799Z,99810.91
2019-05-21T22:05:48.087Z,99809.91
2019-05-21T22:08:22.278Z,99815.28
2019-05-21T22:10:54.687Z,99817.13
2019-05-21T22:13:28.917Z,99819.98
2019-05-21T22:16:04.693Z,99815.48
2019-05-21T22:18:37.306Z,99823.23
2019-05-21T22:21:09.411Z,99823.73
2019-05-21T22:23:41.320Z,99821.73
2019-05-21T22:26:13.648Z,99821.09
2019-05-21T22:28:45.936Z,99828.49
2019-05-21T22:31:17.803Z,99820.09
2019-05-21T22:33:50.015Z,99826.80
2019-05-21T22:36:23.774Z,99825.42
2019-05-21T22:38:55.588Z,99825.92
2019-05-21T22:41:27.363Z,99817.84
2019-05-21T22:43:59.373Z,99812.64
2019-05-21T22:46:31.611Z,99815.28
2019-05-21T22:49:03.258Z,99810.74
2019-05-21T22:51:35.025Z,99808.22
2019-05-21T22:54:07.200Z,99806.19
2019-05-21T22:56:39.160Z,99810.22
2019-05-21T22:59:11.445Z,99804.30
2019-05-21T23:01:44.568Z,99809.50
2019-05-21T23:04:16.471Z,99807.14
2019-05-21T23:06:49.847Z,99813.85
2019-05-21T23:09:21.829Z,99820.23
2019-05-21T23:11:53.691Z,99816.50
2019-05-21T23:14:25.433Z,99811.13
2019-05-21T23:16:57.932Z,99812.80
2019-05-21T23:19:34.511Z,99814.14
2019-05-21T23:22:11.639Z,99806.73
2019-05-21T23:24:43.481Z,99815.30
2019-05-21T23:27:17.838Z,99815.47
2019-05-21T23:29:50.231Z,99822.19
2019-05-21T23:32:23.685Z,99819.16
2019-05-21T23:34:56.158Z,99816.76
2019-05-21T23:37:30.689Z,99821.84
2019-05-21T23:40:02.399Z,99821.50
2019-05-21T23:42:34.502Z,99817.77
2019-05-21T23:45:09.026Z,99823.01
2019-05-21T23:47:40.959Z,99817.77
2019-05-21T23:50:14.381Z,99815.58
2019-05-21T23:52:47.371Z,99821.28
2019-05-21T23:55:19.279Z,99820.94
2019-05-21T23:57:52.117Z,99817.41
